sensor_id;sensor_type;location;lat;lon;timestamp;P1;durP1;ratioP1;P2;durP2;ratioP2
29848;SDS011;16728;50.832;5.590;2022-10-16T00:00:41;4.13;;;1.20;;
29848;SDS011;16728;50.832;5.590;2022-10-16T00:03:45;2.55;;;1.08;;
29848;SDS011;16728;50.832;5.590;2022-10-16T00:06:47;1.90;;;0.90;;
29848;SDS011;16728;50.832;5.590;2022-10-16T00:09:49;2.38;;;1.27;;
29848;SDS011;16728;50.832;5.590;2022-10-16T00:12:51;2.15;;;0.90;;
29848;SDS011;16728;50.832;5.590;2022-10-16T00:15:54;2.00;;;1.00;;
29848;SDS011;16728;50.832;5.590;2022-10-16T00:18:57;1.60;;;1.27;;
29848;SDS011;16728;50.832;5.590;2022-10-16T00:21:59;1.90;;;1.25;;
29848;SDS011;16728;50.832;5.590;2022-10-16T00:25:00;5.35;;;1.45;;
29848;SDS011;16728;50.832;5.590;2022-10-16T00:28:03;2.75;;;1.45;;
29848;SDS011;16728;50.832;5.590;2022-10-16T00:31:06;4.97;;;1.40;;
29848;SDS011;16728;50.832;5.590;2022-10-16T00:34:09;2.22;;;1.25;;
29848;SDS011;16728;50.832;5.590;2022-10-16T00:37:12;1.65;;;1.02;;
29848;SDS011;16728;50.832;5.590;2022-10-16T00:40:14;1.98;;;0.80;;
29848;SDS011;16728;50.832;5.590;2022-10-16T00:43:33;1.88;;;1.00;;
29848;SDS011;16728;50.832;5.590;2022-10-16T00:46:42;2.05;;;0.80;;
29848;SDS011;16728;50.832;5.590;2022-10-16T00:49:43;0.90;;;0.82;;
29848;SDS011;16728;50.832;5.590;2022-10-16T00:55:49;2.00;;;0.82;;
29848;SDS011;16728;50.832;5.590;2022-10-16T00:58:51;2.00;;;0.90;;
29848;SDS011;16728;50.832;5.590;2022-10-16T01:01:54;1.65;;;0.70;;
29848;SDS011;16728;50.832;5.590;2022-10-16T01:04:58;1.95;;;0.88;;
29848;SDS011;16728;50.832;5.590;2022-10-16T01:08:12;3.17;;;0.93;;
29848;SDS011;16728;50.832;5.590;2022-10-16T01:11:25;4.20;;;0.90;;
29848;SDS011;16728;50.832;5.590;2022-10-16T01:15:13;1.35;;;0.77;;
29848;SDS011;16728;50.832;5.590;2022-10-16T01:22:09;2.00;;;0.90;;
29848;SDS011;16728;50.832;5.590;2022-10-16T01:25:13;2.70;;;1.00;;
29848;SDS011;16728;50.832;5.590;2022-10-16T01:28:24;3.97;;;1.05;;
29848;SDS011;16728;50.832;5.590;2022-10-16T01:31:36;2.03;;;1.30;;
29848;SDS011;16728;50.832;5.590;2022-10-16T01:34:52;4.80;;;1.45;;
29848;SDS011;16728;50.832;5.590;2022-10-16T01:38:00;5.93;;;1.33;;
29848;SDS011;16728;50.832;5.590;2022-10-16T01:45:05;1.88;;;1.10;;
29848;SDS011;16728;50.832;5.590;2022-10-16T01:48:09;2.22;;;1.02;;
29848;SDS011;16728;50.832;5.590;2022-10-16T01:51:14;4.20;;;1.52;;
29848;SDS011;16728;50.832;5.590;2022-10-16T01:54:19;5.03;;;1.27;;
29848;SDS011;16728;50.832;5.590;2022-10-16T01:57:24;1.50;;;1.08;;
29848;SDS011;16728;50.832;5.590;2022-10-16T02:00:29;2.63;;;1.20;;
29848;SDS011;16728;50.832;5.590;2022-10-16T02:03:32;2.47;;;1.35;;
29848;SDS011;16728;50.832;5.590;2022-10-16T02:06:35;1.30;;;1.10;;
29848;SDS011;16728;50.832;5.590;2022-10-16T02:09:37;4.40;;;1.10;;
29848;SDS011;16728;50.832;5.590;2022-10-16T02:12:41;2.33;;;1.30;;
29848;SDS011;16728;50.832;5.590;2022-10-16T02:15:47;3.50;;;1.35;;
29848;SDS011;16728;50.832;5.590;2022-10-16T02:18:48;2.17;;;1.30;;
29848;SDS011;16728;50.832;5.590;2022-10-16T02:22:00;2.28;;;1.45;;
29848;SDS011;16728;50.832;5.590;2022-10-16T02:28:17;2.30;;;0.95;;
29848;SDS011;16728;50.832;5.590;2022-10-16T02:31:27;1.63;;;1.10;;
29848;SDS011;16728;50.832;5.590;2022-10-16T02:34:32;2.13;;;1.23;;
29848;SDS011;16728;50.832;5.590;2022-10-16T02:37:35;3.13;;;1.40;;
29848;SDS011;16728;50.832;5.590;2022-10-16T02:40:39;1.85;;;1.02;;
29848;SDS011;16728;50.832;5.590;2022-10-16T02:43:42;3.00;;;1.05;;
29848;SDS011;16728;50.832;5.590;2022-10-16T02:46:46;2.17;;;1.25;;
29848;SDS011;16728;50.832;5.590;2022-10-16T02:49:49;1.30;;;1.02;;
29848;SDS011;16728;50.832;5.590;2022-10-16T02:52:54;2.88;;;1.30;;
29848;SDS011;16728;50.832;5.590;2022-10-16T02:55:59;5.95;;;1.50;;
29848;SDS011;16728;50.832;5.590;2022-10-16T02:59:01;3.75;;;1.58;;
29848;SDS011;16728;50.832;5.590;2022-10-16T03:02:02;6.38;;;1.20;;
29848;SDS011;16728;50.832;5.590;2022-10-16T03:05:04;5.05;;;1.40;;
29848;SDS011;16728;50.832;5.590;2022-10-16T03:08:06;3.10;;;1.02;;
29848;SDS011;16728;50.832;5.590;2022-10-16T03:11:09;2.38;;;1.30;;
29848;SDS011;16728;50.832;5.590;2022-10-16T03:14:11;4.50;;;1.30;;
29848;SDS011;16728;50.832;5.590;2022-10-16T03:17:13;1.52;;;1.27;;
29848;SDS011;16728;50.832;5.590;2022-10-16T03:20:17;3.60;;;1.20;;
29848;SDS011;16728;50.832;5.590;2022-10-16T03:23:19;2.80;;;1.30;;
29848;SDS011;16728;50.832;5.590;2022-10-16T03:26:21;1.50;;;1.10;;
29848;SDS011;16728;50.832;5.590;2022-10-16T03:29:24;4.10;;;1.30;;
29848;SDS011;16728;50.832;5.590;2022-10-16T03:32:27;1.35;;;1.20;;
29848;SDS011;16728;50.832;5.590;2022-10-16T03:35:36;2.22;;;1.17;;
29848;SDS011;16728;50.832;5.590;2022-10-16T03:38:38;3.38;;;1.50;;
29848;SDS011;16728;50.832;5.590;2022-10-16T03:41:40;4.72;;;1.33;;
29848;SDS011;16728;50.832;5.590;2022-10-16T03:44:42;2.92;;;1.30;;
29848;SDS011;16728;50.832;5.590;2022-10-16T03:47:43;3.88;;;1.52;;
29848;SDS011;16728;50.832;5.590;2022-10-16T03:50:45;2.20;;;1.38;;
29848;SDS011;16728;50.832;5.590;2022-10-16T03:54:03;2.30;;;1.40;;
29848;SDS011;16728;50.832;5.590;2022-10-16T03:57:04;1.98;;;1.30;;
29848;SDS011;16728;50.832;5.590;2022-10-16T04:00:06;4.72;;;1.58;;
29848;SDS011;16728;50.832;5.590;2022-10-16T04:03:09;5.47;;;2.43;;
29848;SDS011;16728;50.832;5.590;2022-10-16T04:06:11;7.13;;;1.88;;
29848;SDS011;16728;50.832;5.590;2022-10-16T04:09:13;5.10;;;1.45;;
29848;SDS011;16728;50.832;5.590;2022-10-16T04:12:15;3.05;;;1.52;;
29848;SDS011;16728;50.832;5.590;2022-10-16T04:15:24;3.92;;;1.63;;
29848;SDS011;16728;50.832;5.590;2022-10-16T04:18:27;3.67;;;2.07;;
29848;SDS011;16728;50.832;5.590;2022-10-16T04:21:28;3.95;;;2.45;;
29848;SDS011;16728;50.832;5.590;2022-10-16T04:24:30;4.22;;;2.20;;
29848;SDS011;16728;50.832;5.590;2022-10-16T04:27:32;6.68;;;2.38;;
29848;SDS011;16728;50.832;5.590;2022-10-16T04:30:34;3.90;;;2.25;;
29848;SDS011;16728;50.832;5.590;2022-10-16T04:33:38;5.43;;;2.00;;
29848;SDS011;16728;50.832;5.590;2022-10-16T04:36:47;9.75;;;2.28;;
29848;SDS011;16728;50.832;5.590;2022-10-16T04:39:50;2.83;;;1.92;;
29848;SDS011;16728;50.832;5.590;2022-10-16T04:42:52;3.97;;;2.10;;
29848;SDS011;16728;50.832;5.590;2022-10-16T04:45:54;2.15;;;2.00;;
29848;SDS011;16728;50.832;5.590;2022-10-16T04:48:57;4.18;;;2.28;;
29848;SDS011;16728;50.832;5.590;2022-10-16T04:51:59;3.00;;;1.92;;
29848;SDS011;16728;50.832;5.590;2022-10-16T04:55:01;2.42;;;2.00;;
29848;SDS011;16728;50.832;5.590;2022-10-16T04:58:04;5.03;;;2.35;;
29848;SDS011;16728;50.832;5.590;2022-10-16T05:01:06;2.08;;;1.85;;
29848;SDS011;16728;50.832;5.590;2022-10-16T05:04:26;5.55;;;1.98;;
29848;SDS011;16728;50.832;5.590;2022-10-16T05:07:28;3.13;;;2.05;;
29848;SDS011;16728;50.832;5.590;2022-10-16T05:10:30;3.15;;;1.70;;
29848;SDS011;16728;50.832;5.590;2022-10-16T05:13:31;2.78;;;2.10;;
29848;SDS011;16728;50.832;5.590;2022-10-16T05:16:33;2.10;;;1.90;;
29848;SDS011;16728;50.832;5.590;2022-10-16T05:19:35;3.00;;;1.98;;
29848;SDS011;16728;50.832;5.590;2022-10-16T05:22:38;4.37;;;1.70;;
29848;SDS011;16728;50.832;5.590;2022-10-16T05:25:40;4.82;;;2.20;;
29848;SDS011;16728;50.832;5.590;2022-10-16T05:28:42;4.68;;;2.35;;
29848;SDS011;16728;50.832;5.590;2022-10-16T05:31:44;3.10;;;2.00;;
29848;SDS011;16728;50.832;5.590;2022-10-16T05:34:46;5.30;;;2.55;;
29848;SDS011;16728;50.832;5.590;2022-10-16T05:37:48;2.40;;;2.00;;
29848;SDS011;16728;50.832;5.590;2022-10-16T05:40:50;3.15;;;1.92;;
29848;SDS011;16728;50.832;5.590;2022-10-16T05:43:56;4.60;;;1.77;;
29848;SDS011;16728;50.832;5.590;2022-10-16T05:47:01;4.00;;;1.90;;
29848;SDS011;16728;50.832;5.590;2022-10-16T05:50:03;2.13;;;1.77;;
29848;SDS011;16728;50.832;5.590;2022-10-16T05:53:05;2.65;;;1.85;;
29848;SDS011;16728;50.832;5.590;2022-10-16T05:56:09;3.50;;;1.98;;
29848;SDS011;16728;50.832;5.590;2022-10-16T05:59:12;3.47;;;1.73;;
29848;SDS011;16728;50.832;5.590;2022-10-16T06:02:14;2.75;;;1.90;;
29848;SDS011;16728;50.832;5.590;2022-10-16T06:05:16;3.67;;;1.92;;
29848;SDS011;16728;50.832;5.590;2022-10-16T06:08:28;5.28;;;1.70;;
29848;SDS011;16728;50.832;5.590;2022-10-16T06:11:32;4.22;;;1.80;;
29848;SDS011;16728;50.832;5.590;2022-10-16T06:14:34;4.70;;;2.08;;
29848;SDS011;16728;50.832;5.590;2022-10-16T06:17:36;4.35;;;1.90;;
29848;SDS011;16728;50.832;5.590;2022-10-16T06:20:38;3.15;;;2.10;;
29848;SDS011;16728;50.832;5.590;2022-10-16T06:23:40;3.63;;;2.50;;
29848;SDS011;16728;50.832;5.590;2022-10-16T06:26:42;5.63;;;3.90;;
29848;SDS011;16728;50.832;5.590;2022-10-16T06:29:45;4.85;;;2.80;;
29848;SDS011;16728;50.832;5.590;2022-10-16T06:32:47;3.78;;;2.53;;
29848;SDS011;16728;50.832;5.590;2022-10-16T06:35:51;9.18;;;4.50;;
29848;SDS011;16728;50.832;5.590;2022-10-16T06:38:53;5.63;;;3.25;;
29848;SDS011;16728;50.832;5.590;2022-10-16T06:41:55;7.35;;;2.67;;
29848;SDS011;16728;50.832;5.590;2022-10-16T06:45:00;3.88;;;2.20;;
29848;SDS011;16728;50.832;5.590;2022-10-16T06:48:02;5.38;;;2.20;;
29848;SDS011;16728;50.832;5.590;2022-10-16T06:54:06;3.03;;;1.88;;
29848;SDS011;16728;50.832;5.590;2022-10-16T06:57:08;6.15;;;2.25;;
29848;SDS011;16728;50.832;5.590;2022-10-16T07:00:10;7.47;;;2.28;;
29848;SDS011;16728;50.832;5.590;2022-10-16T07:03:13;7.82;;;2.30;;
29848;SDS011;16728;50.832;5.590;2022-10-16T07:06:16;3.38;;;2.03;;
29848;SDS011;16728;50.832;5.590;2022-10-16T07:09:19;7.18;;;1.90;;
29848;SDS011;16728;50.832;5.590;2022-10-16T07:12:21;4.53;;;2.20;;
29848;SDS011;16728;50.832;5.590;2022-10-16T07:15:24;4.75;;;2.60;;
29848;SDS011;16728;50.832;5.590;2022-10-16T07:18:26;4.93;;;2.50;;
29848;SDS011;16728;50.832;5.590;2022-10-16T07:21:37;5.78;;;1.90;;
29848;SDS011;16728;50.832;5.590;2022-10-16T07:24:39;3.55;;;1.50;;
29848;SDS011;16728;50.832;5.590;2022-10-16T07:27:41;3.40;;;1.50;;
29848;SDS011;16728;50.832;5.590;2022-10-16T07:30:43;2.58;;;1.70;;
29848;SDS011;16728;50.832;5.590;2022-10-16T07:33:46;4.35;;;1.73;;
29848;SDS011;16728;50.832;5.590;2022-10-16T07:39:51;3.03;;;1.48;;
29848;SDS011;16728;50.832;5.590;2022-10-16T07:42:53;2.38;;;1.40;;
29848;SDS011;16728;50.832;5.590;2022-10-16T07:45:55;2.78;;;1.42;;
29848;SDS011;16728;50.832;5.590;2022-10-16T07:49:02;1.80;;;1.20;;
29848;SDS011;16728;50.832;5.590;2022-10-16T07:52:04;4.28;;;1.40;;
29848;SDS011;16728;50.832;5.590;2022-10-16T07:55:06;1.80;;;1.00;;
29848;SDS011;16728;50.832;5.590;2022-10-16T07:58:08;2.38;;;1.20;;
29848;SDS011;16728;50.832;5.590;2022-10-16T08:01:11;4.00;;;1.25;;
29848;SDS011;16728;50.832;5.590;2022-10-16T08:04:15;2.88;;;1.20;;
29848;SDS011;16728;50.832;5.590;2022-10-16T08:07:17;3.70;;;1.13;;
29848;SDS011;16728;50.832;5.590;2022-10-16T08:10:20;3.72;;;1.15;;
29848;SDS011;16728;50.832;5.590;2022-10-16T08:13:24;2.40;;;1.10;;
29848;SDS011;16728;50.832;5.590;2022-10-16T08:16:26;4.90;;;1.30;;
29848;SDS011;16728;50.832;5.590;2022-10-16T08:19:28;5.10;;;1.55;;
29848;SDS011;16728;50.832;5.590;2022-10-16T08:22:31;6.07;;;1.35;;
29848;SDS011;16728;50.832;5.590;2022-10-16T08:25:36;4.60;;;1.42;;
29848;SDS011;16728;50.832;5.590;2022-10-16T08:28:39;5.50;;;1.23;;
29848;SDS011;16728;50.832;5.590;2022-10-16T08:31:41;3.40;;;1.35;;
29848;SDS011;16728;50.832;5.590;2022-10-16T08:34:43;2.42;;;0.90;;
29848;SDS011;16728;50.832;5.590;2022-10-16T08:37:44;2.40;;;0.80;;
29848;SDS011;16728;50.832;5.590;2022-10-16T08:40:50;1.55;;;1.08;;
29848;SDS011;16728;50.832;5.590;2022-10-16T08:50:55;2.58;;;1.00;;
29848;SDS011;16728;50.832;5.590;2022-10-16T08:53:58;6.27;;;1.03;;
29848;SDS011;16728;50.832;5.590;2022-10-16T09:00:24;3.10;;;0.90;;
29848;SDS011;16728;50.832;5.590;2022-10-16T09:06:45;3.75;;;1.23;;
29848;SDS011;16728;50.832;5.590;2022-10-16T09:10:04;2.20;;;1.00;;
29848;SDS011;16728;50.832;5.590;2022-10-16T09:13:29;2.67;;;0.90;;
29848;SDS011;16728;50.832;5.590;2022-10-16T09:16:49;5.72;;;1.27;;
29848;SDS011;16728;50.832;5.590;2022-10-16T09:23:24;2.88;;;0.80;;
29848;SDS011;16728;50.832;5.590;2022-10-16T09:26:31;3.17;;;0.77;;
29848;SDS011;16728;50.832;5.590;2022-10-16T09:29:41;1.90;;;0.88;;
29848;SDS011;16728;50.832;5.590;2022-10-16T09:32:43;1.90;;;0.65;;
29848;SDS011;16728;50.832;5.590;2022-10-16T09:35:49;2.47;;;0.93;;
29848;SDS011;16728;50.832;5.590;2022-10-16T09:39:05;3.42;;;0.70;;
29848;SDS011;16728;50.832;5.590;2022-10-16T09:42:23;2.95;;;0.80;;
29848;SDS011;16728;50.832;5.590;2022-10-16T09:45:29;3.25;;;0.90;;
29848;SDS011;16728;50.832;5.590;2022-10-16T09:48:38;2.38;;;0.77;;
29848;SDS011;16728;50.832;5.590;2022-10-16T09:51:46;2.65;;;0.90;;
29848;SDS011;16728;50.832;5.590;2022-10-16T09:54:52;1.87;;;0.87;;
29848;SDS011;16728;50.832;5.590;2022-10-16T09:57:56;3.83;;;1.00;;
29848;SDS011;16728;50.832;5.590;2022-10-16T10:01:00;4.95;;;1.00;;
29848;SDS011;16728;50.832;5.590;2022-10-16T10:07:32;3.13;;;0.88;;
29848;SDS011;16728;50.832;5.590;2022-10-16T10:10:41;3.22;;;1.05;;
29848;SDS011;16728;50.832;5.590;2022-10-16T10:13:43;3.08;;;0.70;;
29848;SDS011;16728;50.832;5.590;2022-10-16T10:16:46;3.20;;;0.80;;
29848;SDS011;16728;50.832;5.590;2022-10-16T10:19:52;2.45;;;0.90;;
29848;SDS011;16728;50.832;5.590;2022-10-16T10:22:56;6.70;;;1.20;;
29848;SDS011;16728;50.832;5.590;2022-10-16T10:29:25;5.90;;;0.73;;
29848;SDS011;16728;50.832;5.590;2022-10-16T10:36:20;1.23;;;0.70;;
29848;SDS011;16728;50.832;5.590;2022-10-16T10:43:56;2.85;;;0.90;;
29848;SDS011;16728;50.832;5.590;2022-10-16T10:50:48;1.63;;;0.82;;
29848;SDS011;16728;50.832;5.590;2022-10-16T10:54:06;3.15;;;0.70;;
29848;SDS011;16728;50.832;5.590;2022-10-16T11:07:05;3.40;;;0.82;;
29848;SDS011;16728;50.832;5.590;2022-10-16T11:10:20;4.35;;;0.90;;
29848;SDS011;16728;50.832;5.590;2022-10-16T11:13:30;1.45;;;0.60;;
29848;SDS011;16728;50.832;5.590;2022-10-16T11:20:31;2.63;;;0.70;;
29848;SDS011;16728;50.832;5.590;2022-10-16T11:23:42;3.63;;;0.65;;
29848;SDS011;16728;50.832;5.590;2022-10-16T11:26:52;4.55;;;0.82;;
29848;SDS011;16728;50.832;5.590;2022-10-16T11:29:57;3.83;;;0.93;;
29848;SDS011;16728;50.832;5.590;2022-10-16T11:39:27;3.63;;;0.60;;
29848;SDS011;16728;50.832;5.590;2022-10-16T11:42:37;2.28;;;0.70;;
29848;SDS011;16728;50.832;5.590;2022-10-16T11:45:55;2.13;;;0.90;;
29848;SDS011;16728;50.832;5.590;2022-10-16T11:49:02;2.70;;;0.80;;
29848;SDS011;16728;50.832;5.590;2022-10-16T11:52:57;2.38;;;0.80;;
29848;SDS011;16728;50.832;5.590;2022-10-16T11:55:45;7.22;;;0.90;;
29848;SDS011;16728;50.832;5.590;2022-10-16T12:09:53;2.38;;;0.93;;
29848;SDS011;16728;50.832;5.590;2022-10-16T12:12:57;2.88;;;1.02;;
29848;SDS011;16728;50.832;5.590;2022-10-16T12:19:14;1.85;;;0.70;;
29848;SDS011;16728;50.832;5.590;2022-10-16T12:22:17;5.75;;;0.60;;
29848;SDS011;16728;50.832;5.590;2022-10-16T12:28:47;2.78;;;0.60;;
29848;SDS011;16728;50.832;5.590;2022-10-16T12:31:53;3.75;;;0.90;;
29848;SDS011;16728;50.832;5.590;2022-10-16T12:35:02;1.27;;;0.60;;
29848;SDS011;16728;50.832;5.590;2022-10-16T12:38:07;2.35;;;1.00;;
29848;SDS011;16728;50.832;5.590;2022-10-16T12:41:29;2.78;;;0.95;;
29848;SDS011;16728;50.832;5.590;2022-10-16T12:44:35;3.38;;;1.00;;
29848;SDS011;16728;50.832;5.590;2022-10-16T12:47:46;1.52;;;0.60;;
29848;SDS011;16728;50.832;5.590;2022-10-16T12:50:50;3.83;;;0.73;;
29848;SDS011;16728;50.832;5.590;2022-10-16T12:54:11;4.32;;;0.60;;
29848;SDS011;16728;50.832;5.590;2022-10-16T13:00:26;3.78;;;0.80;;
29848;SDS011;16728;50.832;5.590;2022-10-16T13:07:21;6.35;;;0.70;;
29848;SDS011;16728;50.832;5.590;2022-10-16T13:18:14;3.63;;;0.93;;
29848;SDS011;16728;50.832;5.590;2022-10-16T13:24:40;2.05;;;0.82;;
29848;SDS011;16728;50.832;5.590;2022-10-16T13:30:54;1.55;;;0.50;;
29848;SDS011;16728;50.832;5.590;2022-10-16T13:33:59;1.63;;;0.50;;
29848;SDS011;16728;50.832;5.590;2022-10-16T13:37:02;1.92;;;0.50;;
29848;SDS011;16728;50.832;5.590;2022-10-16T13:40:22;1.15;;;0.50;;
29848;SDS011;16728;50.832;5.590;2022-10-16T13:43:35;2.17;;;0.50;;
29848;SDS011;16728;50.832;5.590;2022-10-16T13:46:40;1.65;;;0.77;;
29848;SDS011;16728;50.832;5.590;2022-10-16T13:49:42;1.23;;;0.55;;
29848;SDS011;16728;50.832;5.590;2022-10-16T13:52:44;0.90;;;0.60;;
29848;SDS011;16728;50.832;5.590;2022-10-16T13:59:01;1.30;;;0.60;;
29848;SDS011;16728;50.832;5.590;2022-10-16T14:05:28;2.50;;;0.63;;
29848;SDS011;16728;50.832;5.590;2022-10-16T14:08:30;0.83;;;0.70;;
29848;SDS011;16728;50.832;5.590;2022-10-16T14:11:33;0.98;;;0.50;;
29848;SDS011;16728;50.832;5.590;2022-10-16T14:14:41;1.92;;;0.65;;
29848;SDS011;16728;50.832;5.590;2022-10-16T14:17:45;2.30;;;0.50;;
29848;SDS011;16728;50.832;5.590;2022-10-16T14:20:51;3.47;;;0.63;;
29848;SDS011;16728;50.832;5.590;2022-10-16T14:23:55;2.25;;;0.60;;
29848;SDS011;16728;50.832;5.590;2022-10-16T14:26:57;0.55;;;0.43;;
29848;SDS011;16728;50.832;5.590;2022-10-16T14:30:14;1.60;;;0.80;;
29848;SDS011;16728;50.832;5.590;2022-10-16T14:33:24;2.70;;;0.90;;
29848;SDS011;16728;50.832;5.590;2022-10-16T14:36:40;2.08;;;0.73;;
29848;SDS011;16728;50.832;5.590;2022-10-16T14:39:42;2.70;;;0.90;;
29848;SDS011;16728;50.832;5.590;2022-10-16T14:42:50;11.68;;;1.38;;
29848;SDS011;16728;50.832;5.590;2022-10-16T14:45:53;2.78;;;0.80;;
29848;SDS011;16728;50.832;5.590;2022-10-16T14:49:17;6.47;;;0.80;;
29848;SDS011;16728;50.832;5.590;2022-10-16T14:52:21;1.27;;;0.60;;
29848;SDS011;16728;50.832;5.590;2022-10-16T14:55:23;2.70;;;0.90;;
29848;SDS011;16728;50.832;5.590;2022-10-16T14:58:26;3.20;;;0.70;;
29848;SDS011;16728;50.832;5.590;2022-10-16T15:01:28;0.90;;;0.65;;
29848;SDS011;16728;50.832;5.590;2022-10-16T15:04:30;2.65;;;0.70;;
29848;SDS011;16728;50.832;5.590;2022-10-16T15:07:32;2.72;;;1.10;;
29848;SDS011;16728;50.832;5.590;2022-10-16T15:10:36;2.42;;;0.85;;
29848;SDS011;16728;50.832;5.590;2022-10-16T15:13:44;2.03;;;0.70;;
29848;SDS011;16728;50.832;5.590;2022-10-16T15:16:46;1.55;;;0.65;;
29848;SDS011;16728;50.832;5.590;2022-10-16T15:19:48;4.00;;;0.70;;
29848;SDS011;16728;50.832;5.590;2022-10-16T15:22:50;0.85;;;0.73;;
29848;SDS011;16728;50.832;5.590;2022-10-16T15:25:53;2.97;;;0.90;;
29848;SDS011;16728;50.832;5.590;2022-10-16T15:28:56;2.10;;;0.75;;
29848;SDS011;16728;50.832;5.590;2022-10-16T15:31:59;1.03;;;0.60;;
29848;SDS011;16728;50.832;5.590;2022-10-16T15:35:00;2.55;;;0.85;;
29848;SDS011;16728;50.832;5.590;2022-10-16T15:38:02;2.38;;;0.80;;
29848;SDS011;16728;50.832;5.590;2022-10-16T15:41:04;3.22;;;0.70;;
29848;SDS011;16728;50.832;5.590;2022-10-16T15:44:06;4.88;;;1.05;;
29848;SDS011;16728;50.832;5.590;2022-10-16T15:47:07;4.13;;;0.60;;
29848;SDS011;16728;50.832;5.590;2022-10-16T15:50:10;1.23;;;0.90;;
29848;SDS011;16728;50.832;5.590;2022-10-16T15:53:16;4.90;;;0.63;;
29848;SDS011;16728;50.832;5.590;2022-10-16T15:56:18;3.70;;;1.00;;
29848;SDS011;16728;50.832;5.590;2022-10-16T15:59:20;2.95;;;0.80;;
29848;SDS011;16728;50.832;5.590;2022-10-16T16:02:22;3.40;;;1.07;;
29848;SDS011;16728;50.832;5.590;2022-10-16T16:05:24;1.55;;;0.80;;
29848;SDS011;16728;50.832;5.590;2022-10-16T16:08:26;2.63;;;0.80;;
29848;SDS011;16728;50.832;5.590;2022-10-16T16:11:28;1.98;;;0.90;;
29848;SDS011;16728;50.832;5.590;2022-10-16T16:14:33;1.30;;;0.90;;
29848;SDS011;16728;50.832;5.590;2022-10-16T16:17:35;2.95;;;1.20;;
29848;SDS011;16728;50.832;5.590;2022-10-16T16:20:37;3.28;;;0.90;;
29848;SDS011;16728;50.832;5.590;2022-10-16T16:23:39;4.95;;;1.35;;
29848;SDS011;16728;50.832;5.590;2022-10-16T16:26:41;1.45;;;0.98;;
29848;SDS011;16728;50.832;5.590;2022-10-16T16:29:44;4.35;;;1.10;;
29848;SDS011;16728;50.832;5.590;2022-10-16T16:32:46;1.65;;;1.10;;
29848;SDS011;16728;50.832;5.590;2022-10-16T16:35:48;7.13;;;0.95;;
29848;SDS011;16728;50.832;5.590;2022-10-16T16:38:50;5.18;;;1.30;;
29848;SDS011;16728;50.832;5.590;2022-10-16T16:41:52;4.20;;;0.93;;
29848;SDS011;16728;50.832;5.590;2022-10-16T16:44:57;4.90;;;1.20;;
29848;SDS011;16728;50.832;5.590;2022-10-16T16:47:59;4.78;;;1.20;;
29848;SDS011;16728;50.832;5.590;2022-10-16T16:51:04;2.60;;;1.10;;
29848;SDS011;16728;50.832;5.590;2022-10-16T16:54:07;2.33;;;1.48;;
29848;SDS011;16728;50.832;5.590;2022-10-16T16:57:10;4.32;;;1.40;;
29848;SDS011;16728;50.832;5.590;2022-10-16T17:00:12;2.47;;;1.20;;
29848;SDS011;16728;50.832;5.590;2022-10-16T17:03:15;3.95;;;1.38;;
29848;SDS011;16728;50.832;5.590;2022-10-16T17:06:17;2.78;;;1.17;;
29848;SDS011;16728;50.832;5.590;2022-10-16T17:09:23;4.20;;;1.00;;
29848;SDS011;16728;50.832;5.590;2022-10-16T17:12:25;3.55;;;1.52;;
29848;SDS011;16728;50.832;5.590;2022-10-16T17:15:27;3.60;;;1.83;;
29848;SDS011;16728;50.832;5.590;2022-10-16T17:18:29;6.10;;;3.47;;
29848;SDS011;16728;50.832;5.590;2022-10-16T17:21:31;6.05;;;3.53;;
29848;SDS011;16728;50.832;5.590;2022-10-16T17:24:33;7.30;;;4.17;;
29848;SDS011;16728;50.832;5.590;2022-10-16T17:27:35;13.55;;;5.20;;
29848;SDS011;16728;50.832;5.590;2022-10-16T17:30:37;5.25;;;2.72;;
29848;SDS011;16728;50.832;5.590;2022-10-16T17:33:44;8.50;;;3.83;;
29848;SDS011;16728;50.832;5.590;2022-10-16T17:39:49;9.10;;;5.22;;
29848;SDS011;16728;50.832;5.590;2022-10-16T17:42:52;10.80;;;7.05;;
29848;SDS011;16728;50.832;5.590;2022-10-16T17:45:54;13.32;;;8.55;;
29848;SDS011;16728;50.832;5.590;2022-10-16T17:48:56;15.70;;;9.20;;
29848;SDS011;16728;50.832;5.590;2022-10-16T17:51:59;18.88;;;13.35;;
29848;SDS011;16728;50.832;5.590;2022-10-16T17:55:03;19.60;;;12.63;;
29848;SDS011;16728;50.832;5.590;2022-10-16T17:58:06;14.55;;;7.45;;
29848;SDS011;16728;50.832;5.590;2022-10-16T18:01:12;11.75;;;5.90;;
29848;SDS011;16728;50.832;5.590;2022-10-16T18:04:16;6.38;;;4.45;;
29848;SDS011;16728;50.832;5.590;2022-10-16T18:07:18;6.88;;;5.70;;
29848;SDS011;16728;50.832;5.590;2022-10-16T18:10:20;8.30;;;7.03;;
29848;SDS011;16728;50.832;5.590;2022-10-16T18:13:22;10.05;;;8.82;;
29848;SDS011;16728;50.832;5.590;2022-10-16T18:16:24;12.75;;;9.35;;
29848;SDS011;16728;50.832;5.590;2022-10-16T18:19:27;11.65;;;10.10;;
29848;SDS011;16728;50.832;5.590;2022-10-16T18:22:29;13.98;;;9.95;;
29848;SDS011;16728;50.832;5.590;2022-10-16T18:25:31;10.38;;;9.10;;
29848;SDS011;16728;50.832;5.590;2022-10-16T18:28:33;11.77;;;9.27;;
29848;SDS011;16728;50.832;5.590;2022-10-16T18:31:35;13.20;;;9.20;;
29848;SDS011;16728;50.832;5.590;2022-10-16T18:34:42;19.42;;;11.15;;
29848;SDS011;16728;50.832;5.590;2022-10-16T18:37:43;13.07;;;8.52;;
29848;SDS011;16728;50.832;5.590;2022-10-16T18:40:46;9.60;;;5.47;;
29848;SDS011;16728;50.832;5.590;2022-10-16T18:43:48;5.55;;;4.10;;
29848;SDS011;16728;50.832;5.590;2022-10-16T18:46:50;6.32;;;3.85;;
29848;SDS011;16728;50.832;5.590;2022-10-16T18:49:52;8.35;;;3.75;;
29848;SDS011;16728;50.832;5.590;2022-10-16T18:52:54;4.95;;;3.60;;
29848;SDS011;16728;50.832;5.590;2022-10-16T18:55:56;5.18;;;3.70;;
29848;SDS011;16728;50.832;5.590;2022-10-16T18:58:59;4.70;;;3.67;;
29848;SDS011;16728;50.832;5.590;2022-10-16T19:02:03;4.45;;;3.75;;
29848;SDS011;16728;50.832;5.590;2022-10-16T19:05:05;4.72;;;3.90;;
29848;SDS011;16728;50.832;5.590;2022-10-16T19:08:12;6.05;;;4.13;;
29848;SDS011;16728;50.832;5.590;2022-10-16T19:11:18;5.63;;;4.03;;
29848;SDS011;16728;50.832;5.590;2022-10-16T19:14:21;5.10;;;3.80;;
29848;SDS011;16728;50.832;5.590;2022-10-16T19:17:23;4.97;;;4.15;;
29848;SDS011;16728;50.832;5.590;2022-10-16T19:20:25;6.43;;;4.18;;
29848;SDS011;16728;50.832;5.590;2022-10-16T19:23:27;4.30;;;3.90;;
29848;SDS011;16728;50.832;5.590;2022-10-16T19:26:29;6.28;;;4.15;;
29848;SDS011;16728;50.832;5.590;2022-10-16T19:29:34;6.53;;;4.32;;
29848;SDS011;16728;50.832;5.590;2022-10-16T19:32:35;6.00;;;4.35;;
29848;SDS011;16728;50.832;5.590;2022-10-16T19:35:37;5.13;;;4.00;;
29848;SDS011;16728;50.832;5.590;2022-10-16T19:38:40;5.68;;;4.60;;
29848;SDS011;16728;50.832;5.590;2022-10-16T19:41:42;4.63;;;4.23;;
29848;SDS011;16728;50.832;5.590;2022-10-16T19:44:44;6.90;;;5.40;;
29848;SDS011;16728;50.832;5.590;2022-10-16T19:47:46;8.98;;;4.68;;
29848;SDS011;16728;50.832;5.590;2022-10-16T19:50:48;7.15;;;5.40;;
29848;SDS011;16728;50.832;5.590;2022-10-16T19:53:53;14.10;;;8.88;;
29848;SDS011;16728;50.832;5.590;2022-10-16T19:56:57;11.10;;;8.32;;
29848;SDS011;16728;50.832;5.590;2022-10-16T20:00:00;11.18;;;7.65;;
29848;SDS011;16728;50.832;5.590;2022-10-16T20:03:03;8.77;;;6.63;;
29848;SDS011;16728;50.832;5.590;2022-10-16T20:06:05;8.95;;;6.70;;
29848;SDS011;16728;50.832;5.590;2022-10-16T20:12:10;9.50;;;5.63;;
29848;SDS011;16728;50.832;5.590;2022-10-16T20:15:12;7.85;;;4.97;;
29848;SDS011;16728;50.832;5.590;2022-10-16T20:18:14;9.00;;;5.10;;
29848;SDS011;16728;50.832;5.590;2022-10-16T20:21:18;10.38;;;7.10;;
29848;SDS011;16728;50.832;5.590;2022-10-16T20:24:25;13.23;;;9.40;;
29848;SDS011;16728;50.832;5.590;2022-10-16T20:27:27;27.45;;;15.68;;
29848;SDS011;16728;50.832;5.590;2022-10-16T20:30:36;18.83;;;12.65;;
29848;SDS011;16728;50.832;5.590;2022-10-16T20:33:40;12.65;;;9.60;;
29848;SDS011;16728;50.832;5.590;2022-10-16T20:36:42;12.18;;;7.50;;